International Virtual Aviation Organisation

Russian Federation and Kazakhstan MCD

 

Карточка аэропорта UUOO

Внимание!
Информация на этой странице в стадии наполнения.
Если вы не увидели какой-то информации, или заметили неточность - пожалуйста сообщите нам!
Спасибо!
Команда RU-STAFF
Название аэропортаЧертовицкое
Название аэропорта (англ.)Chertovitskoye
Превышение515 ft. (157 m.)
Координаты51°48.09', 39°13.788'
Высота перехода600
Эшелон переходаQFE>=746mm:FL40;QFE<746=>719:FL50;
Коды ответчика2750-2757
Зона ОрВДМосква РПИ (UUWV)
Данные METARUUOO 242300Z 28004MPS CAVOK 01/M00 Q1008 R30/290250 NOSIG RMK QFE742
Проноз погоды (TAF)NODATA
NOTAMshow/hide NOTAM
AWOS   TABLE

Информация о ВПП

ВПП Длина ВПП (м.) Покрытие Курс ВПП Частота ILS
302300Асфальтобетон302111.9
122300Асфальтобетон122 

Диспетчерские позиции

Позывной Наименование органа УВД Частота
UUOO_TWRВоронеж-Вышка118.3
UUOO_APPВоронеж-Подход125.9



Спутниковое изображение